Time;durP1;ratioP1;P1;durP2;ratioP2;P2;SDS_P1;SDS_P2;PMS_P1;PMS_P2;Temp;Humidity;BMP_temperature;BMP_pressure;BME280_temperature;BME280_humidity;BME280_pressure;Samples;Min_cycle;Max_cycle;Signal;HPM_P1;HPM_P2
2021/12/24 00:01:21;;;;;;;39.00;23.13;;;7.90;99.90;;;;;;5013053;28;20196;-76
2021/12/24 00:03:47;;;;;;;40.63;22.73;;;8.00;99.90;;;;;;5013327;28;20168;-77
2021/12/24 00:06:13;;;;;;;38.83;22.23;;;8.00;99.90;;;;;;5013279;28;20605;-77
2021/12/24 00:08:40;;;;;;;43.83;22.50;;;8.00;99.90;;;;;;5013468;28;20320;-76
2021/12/24 00:11:06;;;;;;;36.43;22.07;;;8.00;99.90;;;;;;5012988;28;20185;-76
2021/12/24 00:13:39;;;;;;;38.27;20.93;;;8.10;99.90;;;;;;5011583;28;20181;-77
2021/12/24 00:16:16;;;;;;;37.43;20.80;;;8.00;99.90;;;;;;5013195;28;20153;-76
2021/12/24 00:38:03;;;;;;;28.50;18.17;;;8.20;99.90;;;;;;5004941;28;20206;-77
2021/12/24 00:40:30;;;;;;;29.50;18.03;;;8.30;99.90;;;;;;5015139;28;20172;-76
2021/12/24 00:42:57;;;;;;;26.17;16.70;;;8.20;99.90;;;;;;5016902;28;20196;-76
2021/12/24 00:45:26;;;;;;;26.83;17.37;;;8.20;99.90;;;;;;5016551;28;20648;-77
2021/12/24 00:47:53;;;;;;;26.00;17.03;;;8.30;99.90;;;;;;5016397;28;20255;-76
2021/12/24 00:50:23;;;;;;;27.73;17.30;;;8.30;99.90;;;;;;5016022;28;20177;-76
2021/12/24 00:52:52;;;;;;;27.43;17.97;;;8.30;99.90;;;;;;5016708;28;20177;-77
2021/12/24 00:55:23;;;;;;;27.77;17.70;;;8.30;99.90;;;;;;5015110;28;20181;-76
2021/12/24 00:57:51;;;;;;;24.23;17.40;;;8.30;99.90;;;;;;5015536;28;20205;-77
2021/12/24 01:00:19;;;;;;;25.33;16.53;;;8.30;99.90;;;;;;5015865;28;20640;-76
2021/12/24 01:02:46;;;;;;;25.80;16.57;;;8.30;99.90;;;;;;5016375;28;20188;-76
2021/12/24 01:05:13;;;;;;;27.47;16.47;;;8.30;99.90;;;;;;5016408;28;20230;-76
2021/12/24 01:07:39;;;;;;;26.63;17.83;;;8.20;99.90;;;;;;5016285;28;20856;-76
2021/12/24 01:10:07;;;;;;;24.00;16.40;;;8.30;99.90;;;;;;5016076;28;20183;-76
2021/12/24 01:12:33;;;;;;;26.80;16.70;;;8.30;99.90;;;;;;5016481;28;20177;-76
2021/12/24 01:14:59;;;;;;;25.77;16.53;;;8.30;99.90;;;;;;5016281;28;20187;-76
2021/12/24 01:17:37;;;;;;;24.07;16.13;;;8.30;99.90;;;;;;5016692;28;20192;-76
2021/12/24 01:20:16;;;;;;;24.27;15.83;;;8.30;99.90;;;;;;5016063;28;20179;-76
2021/12/24 01:39:26;;;;;;;23.10;15.93;;;8.30;99.90;;;;;;5015085;28;20596;-76
2021/12/24 01:44:37;;;;;;;25.40;16.40;;;8.40;99.90;;;;;;4996610;28;20176;-76
2021/12/24 01:47:06;;;;;;;24.27;16.70;;;8.30;99.90;;;;;;4996035;28;20289;-76
2021/12/24 01:49:32;;;;;;;24.60;17.10;;;8.30;99.90;;;;;;4998419;28;20219;-77
2021/12/24 01:51:58;;;;;;;23.50;16.97;;;8.30;99.90;;;;;;5014299;28;20177;-76
2021/12/24 01:54:26;;;;;;;24.63;17.20;;;8.30;99.90;;;;;;5014238;28;20635;-76
2021/12/24 01:56:52;;;;;;;27.20;18.37;;;8.40;99.90;;;;;;5015413;28;20251;-76
2021/12/24 01:59:17;;;;;;;28.67;18.90;;;8.30;99.90;;;;;;5013926;28;20185;-77
2021/12/24 02:01:44;;;;;;;28.30;19.57;;;8.30;99.90;;;;;;5015282;28;20185;-76
2021/12/24 02:04:11;;;;;;;26.67;19.43;;;8.40;99.90;;;;;;5014077;28;20185;-76
2021/12/24 02:06:39;;;;;;;31.07;18.50;;;8.30;99.90;;;;;;5015167;28;20578;-76
2021/12/24 02:09:05;;;;;;;31.43;19.87;;;8.40;99.90;;;;;;5013981;28;20650;-76
2021/12/24 02:11:37;;;;;;;30.23;19.83;;;8.40;99.90;;;;;;5014912;28;20183;-76
2021/12/24 02:14:05;;;;;;;31.07;19.57;;;8.40;99.90;;;;;;5015253;28;20161;-76
2021/12/24 02:29:51;;;;;;;32.83;22.90;;;8.50;99.90;;;;;;5015077;28;20226;-76
2021/12/24 02:32:16;;;;;;;32.63;21.87;;;8.40;99.90;;;;;;5014806;28;20173;-76
2021/12/24 02:34:42;;;;;;;42.17;23.07;;;8.50;99.90;;;;;;5014735;28;20180;-76
2021/12/24 02:37:08;;;;;;;36.80;23.60;;;8.50;99.90;;;;;;5013330;28;20203;-76
2021/12/24 02:39:33;;;;;;;33.43;22.63;;;8.50;99.90;;;;;;5014381;28;20173;-76
2021/12/24 02:42:20;;;;;;;36.77;24.40;;;8.50;99.90;;;;;;5013308;28;20646;-77
2021/12/24 02:44:48;;;;;;;35.77;23.93;;;8.50;99.90;;;;;;5012987;28;20208;-76
2021/12/24 02:55:02;;;;;;;43.83;25.50;;;8.60;99.90;;;;;;5014677;28;20215;-76
2021/12/24 02:57:28;;;;;;;37.50;25.50;;;8.60;99.90;;;;;;5013923;28;20228;-76
2021/12/24 03:00:15;;;;;;;40.83;25.47;;;8.60;99.90;;;;;;5014295;28;20173;-77
2021/12/24 03:02:44;;;;;;;38.67;25.97;;;8.50;99.90;;;;;;5013883;28;20244;-76
2021/12/24 03:05:12;;;;;;;35.13;24.33;;;8.60;99.90;;;;;;5012721;28;20185;-76
2021/12/24 03:07:38;;;;;;;39.30;25.80;;;8.60;99.90;;;;;;5013589;28;20212;-76
2021/12/24 03:10:06;;;;;;;37.40;24.90;;;8.50;99.90;;;;;;5013797;28;20187;-76
2021/12/24 03:12:33;;;;;;;40.10;24.73;;;8.60;99.90;;;;;;5012835;28;20179;-76
2021/12/24 03:14:58;;;;;;;47.60;27.03;;;8.50;99.90;;;;;;5014057;28;20525;-76
2021/12/24 03:17:25;;;;;;;39.60;26.20;;;8.60;99.90;;;;;;5014807;28;20204;-77
2021/12/24 03:19:53;;;;;;;45.10;27.83;;;8.50;99.90;;;;;;5014575;28;20177;-77
2021/12/24 03:24:50;;;;;;;44.73;28.83;;;8.50;99.90;;;;;;5015151;28;20165;-76
2021/12/24 03:27:15;;;;;;;37.03;26.67;;;8.50;99.90;;;;;;5015135;28;20597;-77
2021/12/24 03:29:41;;;;;;;41.70;27.33;;;8.60;99.90;;;;;;5012671;28;20229;-77
2021/12/24 03:32:08;;;;;;;39.70;27.63;;;8.50;99.90;;;;;;5012849;28;20185;-76
2021/12/24 03:34:33;;;;;;;44.10;26.83;;;8.50;99.90;;;;;;5014605;28;20176;-76
2021/12/24 03:36:59;;;;;;;37.47;26.60;;;8.50;99.90;;;;;;5012320;28;20263;-77
2021/12/24 03:39:25;;;;;;;41.13;28.37;;;8.50;99.90;;;;;;5012056;28;20217;-78
2021/12/24 03:41:51;;;;;;;49.67;26.83;;;8.60;99.90;;;;;;5013893;28;20184;-76
2021/12/24 03:44:18;;;;;;;43.20;27.67;;;8.60;99.90;;;;;;5013672;28;20654;-77
2021/12/24 03:47:04;;;;;;;40.90;27.70;;;8.60;99.90;;;;;;5013434;28;20299;-77
2021/12/24 03:49:36;;;;;;;36.63;26.63;;;8.60;99.90;;;;;;5012046;28;20175;-77
2021/12/24 03:54:56;;;;;;;39.80;25.90;;;8.60;99.90;;;;;;5013514;28;20183;-77
2021/12/24 03:57:22;;;;;;;36.93;24.83;;;8.70;99.90;;;;;;5012114;28;20200;-77
2021/12/24 03:59:48;;;;;;;37.00;24.00;;;8.60;99.90;;;;;;5011842;28;20241;-77
2021/12/24 04:02:13;;;;;;;39.43;24.33;;;8.60;99.90;;;;;;5011923;28;20218;-76
2021/12/24 04:04:39;;;;;;;38.37;26.37;;;8.60;99.90;;;;;;5013355;28;20188;-77
2021/12/24 04:07:04;;;;;;;37.77;24.73;;;8.60;99.90;;;;;;5013508;28;20208;-77
2021/12/24 04:09:31;;;;;;;36.30;23.73;;;8.60;99.90;;;;;;5013250;28;20175;-77
2021/12/24 04:11:57;;;;;;;44.83;26.10;;;8.60;99.90;;;;;;5013273;28;20634;-77
2021/12/24 04:14:23;;;;;;;43.87;25.97;;;8.60;99.90;;;;;;5012146;28;20180;-77
2021/12/24 04:16:48;;;;;;;37.87;26.03;;;8.70;99.90;;;;;;5013413;28;20200;-76
2021/12/24 04:24:50;;;;;;;42.77;25.93;;;8.60;99.90;;;;;;5013526;28;20184;-76
2021/12/24 04:24:56;;;;;;;40.27;26.60;;;8.70;99.90;;;;;;4993732;28;20165;-76
2021/12/24 04:27:30;;;;;;;41.80;28.17;;;8.70;99.90;;;;;;4993513;28;20687;-77
2021/12/24 04:30:18;;;;;;;45.43;27.07;;;8.70;99.90;;;;;;4997997;28;20184;-76
2021/12/24 04:35:55;;;;;;;44.40;26.97;;;8.70;99.90;;;;;;5013374;28;20172;-77
2021/12/24 04:38:27;;;;;;;39.30;26.47;;;8.70;99.90;;;;;;5011759;28;20731;-76
2021/12/24 04:51:55;;;;;;;39.13;28.47;;;8.70;99.90;;;;;;5012871;28;20666;-76
2021/12/24 05:05:21;;;;;;;44.47;27.17;;;8.70;99.90;;;;;;5013118;28;20244;-77
2021/12/24 05:10:13;;;;;;;47.47;27.67;;;8.80;99.90;;;;;;5012513;28;20237;-76
2021/12/24 05:12:38;;;;;;;43.10;27.03;;;8.80;99.90;;;;;;5012815;28;20607;-76
2021/12/24 05:15:07;;;;;;;42.37;28.47;;;8.80;99.90;;;;;;5015891;28;20199;-77
2021/12/24 05:17:50;;;;;;;45.23;27.83;;;8.80;99.90;;;;;;5016177;28;20200;-76
2021/12/24 05:23:00;;;;;;;38.80;26.30;;;8.70;99.90;;;;;;5016480;28;20171;-77
2021/12/24 05:25:25;;;;;;;42.37;27.27;;;8.80;99.90;;;;;;5016637;28;20264;-76
2021/12/24 05:27:51;;;;;;;45.57;27.50;;;8.80;99.90;;;;;;5014658;28;20625;-77
2021/12/24 05:30:18;;;;;;;49.50;27.97;;;8.80;99.90;;;;;;5015742;28;20546;-76
2021/12/24 05:32:44;;;;;;;46.83;28.43;;;8.80;99.90;;;;;;5014657;28;20587;-77
2021/12/24 05:35:09;;;;;;;44.57;27.07;;;8.80;99.90;;;;;;5015853;28;20208;-77
2021/12/24 05:37:36;;;;;;;41.27;24.70;;;8.80;99.90;;;;;;5015799;28;20232;-77
2021/12/24 05:40:02;;;;;;;46.00;27.73;;;8.80;99.90;;;;;;5014291;28;20173;-77
2021/12/24 05:42:31;;;;;;;44.83;26.67;;;8.80;99.90;;;;;;5015122;28;20238;-77
2021/12/24 05:45:03;;;;;;;46.40;27.33;;;8.80;99.90;;;;;;5015445;28;20180;-77
2021/12/24 05:47:29;;;;;;;37.73;26.40;;;8.80;99.90;;;;;;5015548;28;20213;-77
2021/12/24 05:49:54;;;;;;;42.33;27.93;;;8.80;99.90;;;;;;5014191;28;20272;-77
2021/12/24 05:52:20;;;;;;;47.63;26.00;;;8.80;99.90;;;;;;5015920;28;20544;-76
2021/12/24 05:54:47;;;;;;;38.97;26.33;;;8.80;99.90;;;;;;5014996;28;20172;-77
2021/12/24 05:57:12;;;;;;;39.20;25.07;;;8.80;99.90;;;;;;5015900;28;20189;-77
2021/12/24 05:59:38;;;;;;;43.37;25.23;;;8.80;99.90;;;;;;5014438;28;20181;-77
2021/12/24 06:02:04;;;;;;;35.87;24.03;;;8.80;99.90;;;;;;5015019;28;20177;-77
2021/12/24 06:04:29;;;;;;;37.50;24.20;;;8.80;99.90;;;;;;5014151;28;20184;-76
2021/12/24 06:06:55;;;;;;;39.77;24.57;;;8.80;99.90;;;;;;5013868;28;20208;-76
2021/12/24 06:09:20;;;;;;;39.57;25.17;;;8.80;99.90;;;;;;5013797;28;20175;-76
2021/12/24 06:11:46;;;;;;;43.80;24.70;;;8.80;99.90;;;;;;4995632;28;20170;-76
2021/12/24 06:14:13;;;;;;;42.13;24.50;;;8.80;99.90;;;;;;4994297;28;20603;-76
2021/12/24 06:16:47;;;;;;;36.77;23.33;;;8.80;99.90;;;;;;4995438;28;20193;-76
2021/12/24 06:19:15;;;;;;;43.23;26.33;;;8.80;99.90;;;;;;4995556;28;20196;-76
2021/12/24 06:21:41;;;;;;;33.97;23.97;;;8.80;99.90;;;;;;5013148;28;20725;-76
2021/12/24 06:24:06;;;;;;;35.33;24.40;;;8.80;99.90;;;;;;5013696;28;20185;-76
2021/12/24 06:26:32;;;;;;;36.27;24.23;;;8.70;99.90;;;;;;5015009;28;20207;-77
2021/12/24 06:28:57;;;;;;;40.07;25.50;;;8.70;99.90;;;;;;5015400;28;20219;-77
2021/12/24 06:31:23;;;;;;;38.93;25.23;;;8.70;99.90;;;;;;5014626;28;20303;-76
2021/12/24 06:33:48;;;;;;;39.87;25.83;;;8.80;99.90;;;;;;5012944;28;20567;-77
2021/12/24 06:36:14;;;;;;;41.80;23.97;;;8.80;99.90;;;;;;5014707;28;20177;-76
2021/12/24 06:38:39;;;;;;;34.90;22.37;;;8.70;99.90;;;;;;5014338;28;20194;-76
2021/12/24 06:41:05;;;;;;;38.63;23.27;;;8.70;99.90;;;;;;5014927;28;20591;-76
2021/12/24 06:43:33;;;;;;;37.13;22.97;;;8.70;99.90;;;;;;5014828;28;20177;-76
2021/12/24 06:45:59;;;;;;;42.63;25.20;;;8.70;99.90;;;;;;5014534;28;20635;-76
2021/12/24 06:48:25;;;;;;;37.30;22.87;;;8.70;99.90;;;;;;5014012;28;20197;-76
2021/12/24 06:50:50;;;;;;;37.50;22.70;;;8.60;99.90;;;;;;5014328;28;20184;-77
2021/12/24 06:53:16;;;;;;;37.97;22.93;;;8.70;99.90;;;;;;5013173;28;20177;-76
2021/12/24 06:55:42;;;;;;;41.97;23.73;;;8.70;99.90;;;;;;5014418;28;20674;-77
2021/12/24 06:58:07;;;;;;;34.17;22.47;;;8.70;99.90;;;;;;5014432;28;20203;-76
2021/12/24 07:00:34;;;;;;;37.40;22.20;;;8.80;99.90;;;;;;5014519;28;20172;-76
2021/12/24 07:02:59;;;;;;;38.47;22.90;;;8.80;99.90;;;;;;5013001;28;20193;-76
2021/12/24 07:05:25;;;;;;;40.50;22.63;;;8.80;99.90;;;;;;5014224;28;20200;-76
2021/12/24 07:07:51;;;;;;;40.67;23.50;;;8.80;99.90;;;;;;5012552;28;20205;-76
2021/12/24 07:10:16;;;;;;;38.00;22.83;;;8.80;99.90;;;;;;5013801;28;20542;-76
2021/12/24 07:12:42;;;;;;;35.60;22.03;;;8.80;99.90;;;;;;5012845;28;20673;-76
2021/12/24 07:15:08;;;;;;;38.30;22.70;;;8.80;99.90;;;;;;5014063;28;20177;-76
2021/12/24 07:17:34;;;;;;;36.13;20.53;;;8.80;99.90;;;;;;5012628;28;20208;-76
2021/12/24 07:19:59;;;;;;;40.30;23.47;;;8.80;99.90;;;;;;5013697;28;20177;-76
2021/12/24 07:22:25;;;;;;;31.33;21.50;;;8.80;99.90;;;;;;5013883;28;20223;-76
2021/12/24 07:24:51;;;;;;;40.47;22.27;;;8.80;99.90;;;;;;5014141;28;20184;-76
2021/12/24 07:27:16;;;;;;;38.30;21.27;;;8.80;99.90;;;;;;5013695;28;20204;-76
2021/12/24 07:29:42;;;;;;;32.80;21.20;;;8.80;99.90;;;;;;5013732;28;20189;-77
2021/12/24 07:32:08;;;;;;;39.63;22.70;;;8.80;99.90;;;;;;5014335;28;20179;-76
2021/12/24 07:34:33;;;;;;;34.87;22.03;;;8.90;99.90;;;;;;5013722;28;20659;-76
2021/12/24 07:36:59;;;;;;;30.20;21.23;;;8.80;99.90;;;;;;5011942;28;20702;-77
2021/12/24 07:39:25;;;;;;;34.63;22.73;;;8.80;99.90;;;;;;5013419;28;20223;-77
2021/12/24 07:41:50;;;;;;;34.87;21.70;;;8.80;99.90;;;;;;5012256;28;20180;-76
2021/12/24 07:44:18;;;;;;;36.93;22.57;;;8.80;99.90;;;;;;5014002;28;20307;-76
2021/12/24 07:46:51;;;;;;;40.57;21.97;;;8.80;99.90;;;;;;5013527;28;20225;-74
2021/12/24 07:54:38;;;;;;;36.00;21.37;;;8.80;99.90;;;;;;5013546;28;20530;-76
2021/12/24 07:57:04;;;;;;;40.20;21.30;;;8.80;99.90;;;;;;5013423;28;20296;-76
2021/12/24 07:59:30;;;;;;;36.87;20.07;;;8.80;99.90;;;;;;5013139;28;20169;-76
2021/12/24 08:01:57;;;;;;;34.27;21.63;;;8.80;99.90;;;;;;5013392;28;20172;-77
2021/12/24 08:04:23;;;;;;;32.27;20.80;;;8.80;99.90;;;;;;5012086;28;20181;-76
2021/12/24 08:06:49;;;;;;;36.27;22.67;;;8.80;99.90;;;;;;5013141;28;20208;-76
2021/12/24 08:09:15;;;;;;;34.77;21.27;;;8.80;99.90;;;;;;5013232;28;20180;-77
2021/12/24 08:11:40;;;;;;;32.63;19.07;;;8.80;99.90;;;;;;5011746;28;20172;-76
2021/12/24 08:14:06;;;;;;;34.37;20.67;;;8.80;99.90;;;;;;5011957;28;20651;-76
2021/12/24 08:16:33;;;;;;;35.53;22.13;;;8.80;99.90;;;;;;5013003;28;20205;-76
2021/12/24 08:18:59;;;;;;;41.60;21.50;;;8.80;99.90;;;;;;5013164;28;20173;-76
2021/12/24 08:21:25;;;;;;;39.13;21.07;;;8.80;99.90;;;;;;5011890;28;20742;-76
2021/12/24 08:23:51;;;;;;;39.03;20.63;;;8.80;99.90;;;;;;5011879;28;20251;-76
2021/12/24 08:26:17;;;;;;;33.20;19.47;;;8.80;99.90;;;;;;5012814;28;20196;-76
2021/12/24 08:28:43;;;;;;;38.40;20.10;;;8.80;99.90;;;;;;5011813;28;20179;-76
2021/12/24 08:31:10;;;;;;;42.60;20.03;;;8.80;99.90;;;;;;5013384;28;20710;-76
2021/12/24 08:33:35;;;;;;;38.33;20.00;;;8.80;99.90;;;;;;5013028;28;20635;-77
2021/12/24 08:36:03;;;;;;;46.50;22.63;;;8.80;99.90;;;;;;5011544;28;20184;-76
2021/12/24 08:38:29;;;;;;;38.17;21.20;;;8.80;99.90;;;;;;5012609;28;20219;-76
2021/12/24 08:40:54;;;;;;;40.10;20.63;;;8.80;99.90;;;;;;5013087;28;20169;-77
2021/12/24 08:43:20;;;;;;;35.97;20.57;;;8.80;99.90;;;;;;5012911;28;20647;-77
2021/12/24 08:45:45;;;;;;;37.50;20.77;;;8.80;99.90;;;;;;5012920;28;20248;-76
2021/12/24 08:48:11;;;;;;;30.53;19.17;;;8.90;99.90;;;;;;5022607;23;20235;-91
2021/12/24 08:50:37;;;;;;;36.43;19.17;;;8.90;99.90;;;;;;5016984;28;20204;-92
2021/12/24 08:53:03;;;;;;;42.30;19.93;;;8.80;99.90;;;;;;5018284;28;20242;-92
2021/12/24 08:55:29;;;;;;;40.90;19.97;;;8.90;99.90;;;;;;5018556;28;20183;-91
2021/12/24 08:57:54;;;;;;;34.67;19.83;;;8.90;99.90;;;;;;5018325;28;20614;-92
2021/12/24 09:00:21;;;;;;;38.70;19.43;;;8.90;99.90;;;;;;5016862;28;20247;-91
2021/12/24 09:02:46;;;;;;;45.50;19.07;;;8.90;99.90;;;;;;5041149;22;20231;-77
2021/12/24 09:05:13;;;;;;;39.40;19.60;;;8.90;99.90;;;;;;5019945;28;20200;-77
2021/12/24 09:07:40;;;;;;;33.13;17.33;;;8.90;99.90;;;;;;5019694;28;20204;-77
2021/12/24 09:10:07;;;;;;;32.53;17.83;;;8.90;99.90;;;;;;5019001;28;20235;-77
2021/12/24 09:12:33;;;;;;;37.47;19.07;;;8.90;99.90;;;;;;5018305;28;20225;-77
2021/12/24 09:14:58;;;;;;;37.13;17.87;;;9.00;99.90;;;;;;5017830;28;20173;-77
2021/12/24 09:17:27;;;;;;;37.07;18.60;;;8.90;99.90;;;;;;5019035;28;20283;-77
2021/12/24 09:19:54;;;;;;;31.33;18.03;;;8.90;99.90;;;;;;5018857;28;20284;-77
2021/12/24 09:22:23;;;;;;;36.53;18.33;;;8.90;99.90;;;;;;5017751;28;20177;-77
2021/12/24 09:24:50;;;;;;;39.53;18.60;;;8.90;99.90;;;;;;5017673;28;20183;-77
2021/12/24 09:27:16;;;;;;;32.37;18.63;;;8.90;99.90;;;;;;5018587;28;20200;-78
2021/12/24 09:29:42;;;;;;;34.50;18.73;;;8.90;99.90;;;;;;5019718;28;20658;-78
2021/12/24 09:32:09;;;;;;;35.40;18.43;;;8.90;99.90;;;;;;5021545;28;20173;-78
2021/12/24 09:34:35;;;;;;;33.47;18.53;;;8.90;99.90;;;;;;5021631;28;20212;-78
2021/12/24 09:37:00;;;;;;;33.17;17.93;;;8.90;99.90;;;;;;5021550;28;20177;-78
2021/12/24 09:39:26;;;;;;;34.10;18.07;;;8.90;99.90;;;;;;5020827;28;20251;-79
2021/12/24 09:41:52;;;;;;;30.70;18.87;;;8.90;99.90;;;;;;5022108;28;20196;-78
2021/12/24 09:44:17;;;;;;;31.57;18.33;;;8.90;99.90;;;;;;5022123;28;20524;-78
2021/12/24 09:46:43;;;;;;;35.23;18.73;;;8.90;99.90;;;;;;5021256;28;20259;-78
2021/12/24 09:49:10;;;;;;;32.43;18.17;;;8.90;99.90;;;;;;5017300;28;20635;-77
2021/12/24 09:51:38;;;;;;;34.40;17.97;;;9.00;99.90;;;;;;5015878;28;20216;-76
2021/12/24 09:54:12;;;;;;;36.27;17.00;;;9.00;99.90;;;;;;5016284;28;20252;-77
2021/12/24 09:56:39;;;;;;;35.33;17.30;;;9.00;99.90;;;;;;5016822;28;20497;-77
2021/12/24 09:59:04;;;;;;;28.03;16.43;;;9.00;99.90;;;;;;5017112;28;20279;-77
2021/12/24 10:01:38;;;;;;;29.97;16.73;;;9.00;99.90;;;;;;5015453;28;20231;-76
2021/12/24 10:04:10;;;;;;;34.43;17.70;;;9.00;99.90;;;;;;5014870;28;20260;-76
2021/12/24 10:06:37;;;;;;;38.63;16.77;;;9.00;99.90;;;;;;5015757;28;20191;-77
2021/12/24 10:09:12;;;;;;;36.97;16.87;;;9.10;99.90;;;;;;5015542;28;20196;-76
2021/12/24 10:11:48;;;;;;;30.67;16.80;;;9.10;99.90;;;;;;5015167;28;20185;-76
2021/12/24 10:14:14;;;;;;;41.17;17.13;;;9.10;99.90;;;;;;5015352;28;20157;-76
2021/12/24 10:16:42;;;;;;;36.63;15.37;;;9.10;99.90;;;;;;5015306;28;20227;-76
2021/12/24 10:19:09;;;;;;;28.93;16.47;;;9.10;99.90;;;;;;5015217;28;20200;-77
2021/12/24 10:21:34;;;;;;;34.27;16.17;;;9.10;99.90;;;;;;5014942;28;20181;-76
2021/12/24 10:24:21;;;;;;;36.60;18.77;;;9.10;99.90;;;;;;5015037;28;20183;-76
2021/12/24 10:26:50;;;;;;;34.87;16.77;;;9.10;99.90;;;;;;5015206;28;20523;-77
2021/12/24 10:29:31;;;;;;;33.30;16.80;;;9.10;99.90;;;;;;5014970;28;20674;-76
2021/12/24 10:32:09;;;;;;;31.07;17.80;;;9.10;99.90;;;;;;5010457;28;20177;-76
2021/12/24 10:34:36;;;;;;;32.20;16.93;;;9.10;99.90;;;;;;5014846;28;20167;-76
2021/12/24 10:37:10;;;;;;;30.40;17.00;;;9.10;99.90;;;;;;5013493;28;20184;-76
2021/12/24 10:39:49;;;;;;;32.93;17.13;;;9.10;99.90;;;;;;5014315;28;20258;-77
2021/12/24 10:42:18;;;;;;;29.73;16.57;;;9.10;99.90;;;;;;5014842;28;20528;-77
2021/12/24 10:44:46;;;;;;;32.13;17.37;;;9.10;99.90;;;;;;5013523;28;20676;-77
2021/12/24 10:47:15;;;;;;;29.70;16.40;;;9.10;99.90;;;;;;5013997;28;20204;-77
2021/12/24 10:52:42;;;;;;;31.47;14.53;;;9.20;99.90;;;;;;5015464;28;20174;-77
2021/12/24 10:55:10;;;;;;;32.83;15.03;;;9.20;99.90;;;;;;5014968;28;20742;-77
2021/12/24 10:57:38;;;;;;;28.90;14.03;;;9.20;99.90;;;;;;5014483;28;20302;-77
2021/12/24 11:00:38;;;;;;;31.00;13.90;;;9.30;99.90;;;;;;5014182;28;20180;-76
2021/12/24 11:03:08;;;;;;;25.20;13.37;;;9.30;99.90;;;;;;5012818;28;20193;-76
2021/12/24 11:05:38;;;;;;;24.70;13.30;;;9.30;99.90;;;;;;5014762;28;20173;-77
2021/12/24 11:08:10;;;;;;;24.47;13.33;;;9.30;99.90;;;;;;5014534;28;20207;-76
2021/12/24 11:10:39;;;;;;;26.73;12.83;;;9.30;99.90;;;;;;5012485;28;20188;-76
2021/12/24 11:13:12;;;;;;;26.03;12.67;;;9.40;99.90;;;;;;5013724;28;20169;-76
2021/12/24 11:15:47;;;;;;;31.53;12.00;;;9.40;99.90;;;;;;5013907;28;20176;-77
2021/12/24 11:18:28;;;;;;;23.47;12.27;;;9.40;99.90;;;;;;5014197;28;20246;-77
2021/12/24 11:20:56;;;;;;;24.60;12.50;;;9.30;99.90;;;;;;5013862;28;20173;-76
2021/12/24 11:23:24;;;;;;;25.37;12.30;;;9.30;99.90;;;;;;5012919;28;20251;-76
2021/12/24 11:25:53;;;;;;;22.37;12.23;;;9.30;99.90;;;;;;5013922;28;20594;-76
2021/12/24 11:28:19;;;;;;;25.23;12.20;;;9.20;99.90;;;;;;5013813;28;20570;-77
2021/12/24 11:30:50;;;;;;;24.67;12.07;;;9.20;99.90;;;;;;5013957;28;20590;-76
2021/12/24 11:33:18;;;;;;;19.40;12.77;;;9.20;99.90;;;;;;5012656;28;20179;-76
2021/12/24 11:35:45;;;;;;;27.63;12.67;;;9.20;99.90;;;;;;5012616;28;20184;-76
2021/12/24 11:38:22;;;;;;;28.23;13.53;;;9.20;99.90;;;;;;5012587;28;20200;-76
2021/12/24 11:40:51;;;;;;;25.70;11.90;;;9.20;99.90;;;;;;5013892;28;20219;-76
2021/12/24 11:43:18;;;;;;;28.37;12.50;;;9.20;99.90;;;;;;5013455;28;20173;-76
2021/12/24 11:45:44;;;;;;;26.33;12.43;;;9.10;99.90;;;;;;5013518;28;20539;-76
2021/12/24 11:48:10;;;;;;;23.67;12.13;;;9.10;99.90;;;;;;5013356;28;20258;-76
2021/12/24 11:50:36;;;;;;;19.80;11.37;;;9.10;99.90;;;;;;5013459;28;20184;-76
2021/12/24 11:53:07;;;;;;;26.33;12.53;;;9.10;99.90;;;;;;5013636;28;20204;-76
2021/12/24 11:55:42;;;;;;;22.10;13.10;;;9.10;99.90;;;;;;5013719;28;20605;-77
2021/12/24 11:58:15;;;;;;;30.40;12.93;;;9.10;99.90;;;;;;5014450;28;20219;-78
2021/12/24 12:00:43;;;;;;;29.63;14.70;;;9.00;99.90;;;;;;5017898;28;20192;-77
2021/12/24 12:03:10;;;;;;;36.67;13.47;;;9.00;99.90;;;;;;5014044;28;20185;-77
2021/12/24 12:05:41;;;;;;;33.93;13.67;;;9.00;99.90;;;;;;5015626;28;20168;-77
2021/12/24 12:08:30;;;;;;;30.57;16.13;;;9.00;99.90;;;;;;5014560;28;20215;-77
2021/12/24 12:11:24;;;;;;;35.33;15.33;;;9.00;99.90;;;;;;5015168;28;20280;-78
2021/12/24 12:14:03;;;;;;;31.23;15.57;;;9.00;99.90;;;;;;5016361;28;20235;-77
2021/12/24 12:16:41;;;;;;;32.80;15.43;;;9.00;99.90;;;;;;5016401;28;20181;-77
2021/12/24 12:19:24;;;;;;;30.93;16.43;;;9.10;99.90;;;;;;5014219;28;20315;-78
2021/12/24 12:22:20;;;;;;;26.70;15.47;;;9.10;99.90;;;;;;5017556;28;20523;-77
2021/12/24 12:24:58;;;;;;;26.43;16.40;;;9.10;99.90;;;;;;5022625;28;20176;-78
2021/12/24 12:27:38;;;;;;;30.83;17.47;;;9.10;99.90;;;;;;5018709;28;20212;-77
2021/12/24 12:30:25;;;;;;;37.57;16.80;;;9.10;99.90;;;;;;5018558;28;20288;-77
2021/12/24 12:32:53;;;;;;;33.00;18.43;;;9.10;99.90;;;;;;5018632;28;20169;-78
2021/12/24 12:35:32;;;;;;;37.17;17.70;;;9.10;99.90;;;;;;5018371;28;20161;-77
2021/12/24 12:37:57;;;;;;;38.50;19.63;;;9.10;99.90;;;;;;5016578;28;20207;-77
2021/12/24 12:40:32;;;;;;;32.43;16.33;;;9.10;99.90;;;;;;5017938;28;20173;-77
2021/12/24 12:43:08;;;;;;;33.07;17.73;;;9.20;99.90;;;;;;5016950;28;20180;-77
2021/12/24 12:45:34;;;;;;;31.03;16.50;;;9.20;99.90;;;;;;5018131;28;20161;-77
2021/12/24 12:48:03;;;;;;;31.40;16.33;;;9.10;99.90;;;;;;5016742;28;20304;-77
2021/12/24 12:50:29;;;;;;;38.27;17.93;;;9.10;99.90;;;;;;5016232;28;20195;-77
2021/12/24 12:53:22;;;;;;;38.00;18.90;;;9.20;99.90;;;;;;5018090;28;20185;-77
2021/12/24 12:56:07;;;;;;;34.90;18.17;;;9.10;99.90;;;;;;5016261;28;20173;-77
2021/12/24 12:58:34;;;;;;;32.03;17.70;;;9.20;99.90;;;;;;5016678;28;20223;-76
2021/12/24 13:01:11;;;;;;;41.67;18.83;;;9.10;99.90;;;;;;5017550;28;20171;-76
2021/12/24 13:03:55;;;;;;;49.37;19.60;;;9.20;99.90;;;;;;5017612;28;20654;-77
2021/12/24 13:06:41;;;;;;;33.00;17.30;;;9.20;99.90;;;;;;5017163;28;20195;-78
2021/12/24 13:09:10;;;;;;;30.63;17.47;;;9.20;99.90;;;;;;5018085;28;20693;-77
2021/12/24 13:11:44;;;;;;;32.93;16.90;;;9.20;99.90;;;;;;5019083;28;20169;-78
2021/12/24 13:14:10;;;;;;;34.87;17.90;;;9.20;99.90;;;;;;5017917;28;20176;-77
2021/12/24 13:16:44;;;;;;;29.57;17.73;;;9.20;99.90;;;;;;5018122;28;20596;-77
2021/12/24 13:24:46;;;;;;;39.23;16.33;;;9.30;99.90;;;;;;5017924;28;20243;-77
2021/12/24 13:27:12;;;;;;;29.17;15.73;;;9.30;99.90;;;;;;5017488;28;20695;-77
2021/12/24 13:29:38;;;;;;;30.73;15.50;;;9.30;99.90;;;;;;5018355;28;20245;-77
2021/12/24 13:32:04;;;;;;;24.20;15.37;;;9.30;99.90;;;;;;5018344;28;20543;-77
2021/12/24 13:34:30;;;;;;;31.67;15.80;;;9.40;99.90;;;;;;5016937;28;20173;-77
2021/12/24 13:37:10;;;;;;;26.17;15.63;;;9.40;99.90;;;;;;5018599;28;20173;-78
2021/12/24 13:39:45;;;;;;;29.27;15.63;;;9.40;99.90;;;;;;5016925;28;20169;-77
2021/12/24 13:42:10;;;;;;;25.67;15.10;;;9.40;99.90;;;;;;5017514;28;20164;-77
2021/12/24 13:44:38;;;;;;;26.97;15.63;;;9.40;99.90;;;;;;5018667;28;20666;-77
2021/12/24 13:47:15;;;;;;;24.97;14.70;;;9.40;99.90;;;;;;5017759;28;20197;-77
2021/12/24 13:50:23;;;;;;;33.47;14.43;;;9.40;99.90;;;;;;5018324;28;20203;-77
2021/12/24 13:55:41;;;;;;;24.80;12.63;;;9.50;99.90;;;;;;5018054;28;20531;-78
2021/12/24 13:58:13;;;;;;;24.20;13.50;;;9.40;99.90;;;;;;5018140;28;20686;-77
2021/12/24 14:00:46;;;;;;;26.60;13.97;;;9.40;99.90;;;;;;5016629;28;20181;-78
2021/12/24 14:03:12;;;;;;;25.20;13.30;;;9.40;99.90;;;;;;5018367;28;20185;-78
2021/12/24 14:05:49;;;;;;;23.33;12.93;;;9.40;99.90;;;;;;5017085;28;20188;-78
2021/12/24 14:08:18;;;;;;;19.87;12.23;;;9.50;99.90;;;;;;5018148;28;20212;-77
2021/12/24 14:10:45;;;;;;;20.97;12.10;;;9.40;99.90;;;;;;5018883;28;20177;-78
2021/12/24 14:13:25;;;;;;;26.63;12.60;;;9.40;99.90;;;;;;5018593;28;20223;-78
2021/12/24 14:18:33;;;;;;;19.70;11.70;;;9.40;99.90;;;;;;5018451;28;20658;-77
2021/12/24 14:21:44;;;;;;;24.33;13.63;;;9.40;99.90;;;;;;5016912;28;20165;-78
2021/12/24 14:23:46;;;;;;;23.93;13.37;;;9.40;99.90;;;;;;5017974;28;20177;-77
2021/12/24 14:26:12;;;;;;;27.57;14.37;;;9.40;99.90;;;;;;5018572;28;20169;-77
2021/12/24 14:28:52;;;;;;;26.57;13.47;;;9.30;99.90;;;;;;5018104;28;20193;-78
2021/12/24 14:31:17;;;;;;;27.37;13.90;;;9.30;99.90;;;;;;5017442;28;20569;-77
2021/12/24 14:33:47;;;;;;;27.87;14.47;;;9.30;99.90;;;;;;5017953;28;20173;-78
2021/12/24 14:36:18;;;;;;;21.03;13.07;;;9.30;99.90;;;;;;5016567;28;20195;-77
2021/12/24 14:38:44;;;;;;;25.77;14.77;;;9.30;99.90;;;;;;5017311;28;20196;-77
2021/12/24 14:41:16;;;;;;;27.67;15.00;;;9.30;99.90;;;;;;5016168;28;20176;-77
2021/12/24 14:43:42;;;;;;;26.87;15.13;;;9.20;99.90;;;;;;5017866;28;20160;-77